createdAt,value
2023-05-08T00:01:19.713Z,100832.06
2023-05-08T00:03:46.715Z,100843.66
2023-05-08T00:06:13.722Z,100840.81
2023-05-08T00:08:42.206Z,100839.63
2023-05-08T00:11:08.993Z,100837.75
2023-05-08T00:13:35.801Z,100833.84
2023-05-08T00:16:02.492Z,100836.87
2023-05-08T00:18:29.198Z,100833.78
2023-05-08T00:20:56.008Z,100837.44
2023-05-08T00:23:22.713Z,100848.38
2023-05-08T00:25:49.410Z,100855.41
2023-05-08T00:28:16.105Z,100853.38
2023-05-08T00:30:42.809Z,100861.44
2023-05-08T00:33:09.946Z,100863.56
2023-05-08T00:35:36.752Z,100876.56
2023-05-08T00:38:03.477Z,100868.22
2023-05-08T00:40:30.172Z,100868.09
2023-05-08T00:42:56.827Z,100878.78
2023-05-08T00:45:23.617Z,100877.47
2023-05-08T00:47:50.912Z,100882.59
2023-05-08T00:50:18.238Z,100877.75
2023-05-08T00:52:45.045Z,100881.75
2023-05-08T00:55:11.860Z,100882.94
2023-05-08T00:57:38.712Z,100879.50
2023-05-08T01:00:06.172Z,100887.66
2023-05-08T01:02:33.118Z,100891.88
2023-05-08T01:05:00.415Z,100893.91
2023-05-08T01:07:27.952Z,100889.16
2023-05-08T01:09:54.820Z,100885.72
2023-05-08T01:12:36.676Z,100890.94
2023-05-08T01:15:12.605Z,100891.06
2023-05-08T01:17:42.424Z,100890.28
2023-05-08T01:20:09.256Z,100888.63
2023-05-08T01:22:36.034Z,100891.13
2023-05-08T01:25:18.079Z,100895.78
2023-05-08T01:27:47.807Z,100904.59
2023-05-08T01:30:14.731Z,100904.38
2023-05-08T01:32:43.836Z,100910.91
2023-05-08T01:35:15.297Z,100923.19
2023-05-08T01:38:00.903Z,100916.09
2023-05-08T01:40:27.544Z,100910.88
2023-05-08T01:42:58.405Z,100910.19
2023-05-08T01:45:31.470Z,100906.25
2023-05-08T01:48:03.676Z,100916.22
2023-05-08T01:50:35.836Z,100916.25
2023-05-08T01:53:05.666Z,100916.38
2023-05-08T01:55:35.708Z,100923.47
2023-05-08T01:58:05.108Z,100935.84
2023-05-08T02:00:32.134Z,100939.38
2023-05-08T02:02:59.377Z,100934.94
2023-05-08T02:05:27.895Z,100934.97
2023-05-08T02:07:55.447Z,100933.19
2023-05-08T02:10:24.892Z,100926.19
2023-05-08T02:12:52.571Z,100934.94
2023-05-08T02:15:20.302Z,100935.78
2023-05-08T02:17:48.899Z,100934.94
2023-05-08T02:20:16.204Z,100934.09
2023-05-08T02:22:44.133Z,100934.06
2023-05-08T02:25:14.716Z,100921.72
2023-05-08T02:27:44.296Z,100936.69
2023-05-08T02:30:14.116Z,100935.84
2023-05-08T02:32:44.806Z,100936.72
2023-05-08T02:35:19.590Z,100940.22
2023-05-08T02:37:48.308Z,100934.97
2023-05-08T02:40:16.956Z,100925.31
2023-05-08T02:42:43.980Z,100928.81
2023-05-08T02:45:12.454Z,100929.69
2023-05-08T02:47:53.252Z,100928.81
2023-05-08T02:50:23.116Z,100931.38
2023-05-08T02:52:54.739Z,100930.56
2023-05-08T02:55:27.599Z,100925.31
2023-05-08T02:58:04.211Z,100921.81
2023-05-08T03:00:38.054Z,100941.03
2023-05-08T03:03:25.044Z,100934.94
2023-05-08T03:05:54.021Z,100933.19
2023-05-08T03:08:25.055Z,100941.06
2023-05-08T03:10:52.904Z,100934.97
2023-05-08T03:13:21.166Z,100944.53
2023-05-08T03:15:54.045Z,100944.59
2023-05-08T03:18:23.416Z,100944.50
2023-05-08T03:20:52.932Z,100941.87
2023-05-08T03:23:21.091Z,100941.03
2023-05-08T03:25:47.777Z,100956.66
2023-05-08T03:28:14.917Z,100952.37
2023-05-08T03:30:42.428Z,100962.00
2023-05-08T03:33:09.531Z,100961.22
2023-05-08T03:35:37.430Z,100950.75
2023-05-08T03:38:08.111Z,100946.34
2023-05-08T03:40:42.895Z,100954.25
2023-05-08T03:43:10.468Z,100952.47
2023-05-08T03:45:37.804Z,100959.41
2023-05-08T03:48:05.634Z,100957.38
2023-05-08T03:50:34.486Z,100960.94
2023-05-08T03:53:01.519Z,100960.94
2023-05-08T03:55:28.247Z,100963.72
2023-05-08T03:57:57.855Z,100960.31
2023-05-08T04:00:42.632Z,100964.78
2023-05-08T04:03:21.655Z,100971.78
2023-05-08T04:06:11.476Z,100978.69
2023-05-08T04:08:49.598Z,100984.75
2023-05-08T04:11:21.372Z,100976.94
2023-05-08T04:13:50.314Z,100985.69
2023-05-08T04:16:20.286Z,100978.47
2023-05-08T04:18:48.359Z,100984.28
2023-05-08T04:21:18.336Z,100993.13
2023-05-08T04:23:46.330Z,100984.00
2023-05-08T04:26:15.896Z,100991.91
2023-05-08T04:28:43.496Z,100993.13
2023-05-08T04:31:10.578Z,100986.37
2023-05-08T04:33:37.430Z,100987.38
2023-05-08T04:36:04.360Z,100987.34
2023-05-08T04:38:31.187Z,100990.56
2023-05-08T04:40:57.892Z,100998.66
2023-05-08T04:43:24.541Z,101005.28
2023-05-08T04:45:51.414Z,101008.44
2023-05-08T04:48:19.156Z,101019.50
2023-05-08T04:50:45.902Z,101016.31
2023-05-08T04:53:12.695Z,101019.03
2023-05-08T04:55:39.418Z,101020.00
2023-05-08T04:58:06.207Z,101018.97
2023-05-08T05:00:32.992Z,101017.41
2023-05-08T05:02:59.784Z,101019.16
2023-05-08T05:05:26.524Z,101017.47
2023-05-08T05:07:53.181Z,101025.16
2023-05-08T05:10:19.908Z,101018.94
2023-05-08T05:12:46.559Z,101021.34
2023-05-08T05:15:13.664Z,101033.16
2023-05-08T05:17:40.589Z,101031.97
2023-05-08T05:20:08.902Z,101035.94
2023-05-08T05:22:35.605Z,101025.97
2023-05-08T05:25:02.286Z,101033.31
2023-05-08T05:27:28.964Z,101030.31
2023-05-08T05:29:55.643Z,101035.47
2023-05-08T05:32:22.302Z,101040.78
2023-05-08T05:34:49.033Z,101029.75
2023-05-08T05:37:15.835Z,101030.53
2023-05-08T05:39:42.923Z,101033.56
2023-05-08T05:42:10.937Z,101033.53
2023-05-08T05:44:37.633Z,101032.25
2023-05-08T05:47:10.374Z,101035.47
2023-05-08T05:49:37.186Z,101037.00
2023-05-08T05:52:04.011Z,101034.47
2023-05-08T05:54:30.696Z,101038.22
2023-05-08T05:56:57.400Z,101038.44
2023-05-08T05:59:24.088Z,101044.22
2023-05-08T06:01:50.918Z,101040.59
2023-05-08T06:04:17.965Z,101036.69
2023-05-08T06:06:44.751Z,101042.06
2023-05-08T06:09:11.438Z,101041.63
2023-05-08T06:11:38.127Z,101040.84
2023-05-08T06:14:04.863Z,101039.94
2023-05-08T06:16:32.443Z,101043.47
2023-05-08T06:18:59.140Z,101045.81
2023-05-08T06:21:27.042Z,101041.94
2023-05-08T06:23:53.769Z,101043.78
2023-05-08T06:26:23.338Z,101040.13
2023-05-08T06:28:50.222Z,101048.03
2023-05-08T06:31:17.017Z,101045.72
2023-05-08T06:33:43.993Z,101053.03
2023-05-08T06:36:11.109Z,101050.47
2023-05-08T06:38:37.871Z,101061.38
2023-05-08T06:41:04.557Z,101058.44
2023-05-08T06:43:31.395Z,101058.47
2023-05-08T06:45:59.023Z,101061.75
2023-05-08T06:48:29.619Z,101065.66
2023-05-08T06:50:56.705Z,101069.19
2023-05-08T06:53:23.541Z,101075.66
2023-05-08T06:55:50.324Z,101077.78
2023-05-08T06:58:17.060Z,101074.59
2023-05-08T07:00:43.767Z,101070.22
2023-05-08T07:03:10.613Z,101076.03
2023-05-08T07:05:37.586Z,101070.87
2023-05-08T07:08:04.398Z,101078.66
2023-05-08T07:10:31.138Z,101065.19
2023-05-08T07:12:58.006Z,101071.06
2023-05-08T07:15:26.834Z,101061.03
2023-05-08T07:17:54.034Z,101067.72
2023-05-08T07:20:21.900Z,101067.34
2023-05-08T07:22:48.751Z,101072.34
2023-05-08T07:25:16.417Z,101059.16
2023-05-08T07:27:43.504Z,101063.97
2023-05-08T07:30:10.969Z,101057.59
2023-05-08T07:32:39.605Z,101056.19
2023-05-08T07:35:10.328Z,101052.72
2023-05-08T07:37:37.837Z,101050.59
2023-05-08T07:40:05.465Z,101060.22
2023-05-08T07:42:37.958Z,101060.09
2023-05-08T07:45:04.996Z,101049.84
2023-05-08T07:47:31.674Z,101044.75
2023-05-08T07:49:58.396Z,101053.94
2023-05-08T07:52:25.150Z,101056.81
2023-05-08T07:54:51.894Z,101049.72
2023-05-08T07:57:18.627Z,101050.50
2023-05-08T07:59:45.513Z,101061.94
2023-05-08T08:02:12.263Z,101053.53
2023-05-08T08:04:39.778Z,101055.81
2023-05-08T08:07:06.608Z,101048.66
2023-05-08T08:09:33.303Z,101046.59
2023-05-08T08:12:00.469Z,101043.19
2023-05-08T08:14:27.676Z,101041.31
2023-05-08T08:16:54.468Z,101042.72
2023-05-08T08:19:21.208Z,101051.09
2023-05-08T08:21:47.977Z,101048.25
2023-05-08T08:24:14.772Z,101047.94
2023-05-08T08:26:41.560Z,101053.94
2023-05-08T08:29:08.254Z,101049.25
2023-05-08T08:31:35.100Z,101044.94
2023-05-08T08:34:01.988Z,101039.47
2023-05-08T08:36:28.659Z,101038.25
2023-05-08T08:38:55.396Z,101025.84
2023-05-08T08:41:23.424Z,101035.81
2023-05-08T08:43:50.224Z,101038.91
2023-05-08T08:46:20.524Z,101042.94
2023-05-08T08:48:47.668Z,101029.94
2023-05-08T08:51:46.769Z,101022.88
2023-05-08T08:54:14.705Z,101033.37
2023-05-08T08:56:44.907Z,101037.16
2023-05-08T08:59:12.325Z,101039.38
2023-05-08T09:01:40.018Z,101028.53
2023-05-08T09:04:07.420Z,101023.75
2023-05-08T09:06:38.310Z,101027.56
2023-05-08T09:09:05.824Z,101021.59
2023-05-08T09:11:32.963Z,101030.19
2023-05-08T09:13:59.720Z,101030.97
2023-05-08T09:16:28.244Z,101030.31
2023-05-08T09:18:55.305Z,101030.78
2023-05-08T09:21:25.053Z,101039.66
2023-05-08T09:23:55.340Z,101031.69
2023-05-08T09:26:28.886Z,101025.94
2023-05-08T09:29:14.360Z,101027.25
2023-05-08T09:31:42.298Z,101019.22
2023-05-08T09:34:10.391Z,101019.31
2023-05-08T09:36:37.754Z,101020.31
2023-05-08T09:39:04.619Z,101020.59
2023-05-08T09:41:31.391Z,101027.53
2023-05-08T09:44:05.737Z,101019.22
2023-05-08T09:46:34.659Z,101011.59
2023-05-08T09:49:02.854Z,101014.88
2023-05-08T09:51:31.354Z,101024.22
2023-05-08T09:53:59.381Z,101028.81
2023-05-08T09:56:31.735Z,101031.62
2023-05-08T09:58:58.530Z,101043.03
2023-05-08T10:01:35.781Z,101009.75
2023-05-08T10:04:03.862Z,101011.06
2023-05-08T10:06:30.649Z,101004.88
2023-05-08T10:09:12.938Z,101010.94
2023-05-08T10:11:40.604Z,101010.00
2023-05-08T10:14:07.441Z,101019.53
2023-05-08T10:16:40.410Z,101005.81
2023-05-08T10:19:12.182Z,101014.81
2023-05-08T10:21:42.751Z,101013.44
2023-05-08T10:24:13.604Z,101014.88
2023-05-08T10:26:47.770Z,101014.16
2023-05-08T10:29:28.494Z,101008.38
2023-05-08T10:31:58.852Z,101010.63
2023-05-08T10:34:27.226Z,100995.94
2023-05-08T10:36:54.661Z,101001.91
2023-05-08T10:39:22.837Z,101003.59
2023-05-08T10:41:50.449Z,100989.97
2023-05-08T10:44:20.424Z,100988.91
2023-05-08T10:47:10.382Z,100991.53
2023-05-08T10:49:40.064Z,100985.84
2023-05-08T10:52:10.072Z,100977.94
2023-05-08T10:54:42.557Z,100989.03
2023-05-08T10:57:10.757Z,100988.69
2023-05-08T10:59:38.002Z,100991.62
2023-05-08T11:02:06.327Z,100990.28
2023-05-08T11:04:33.778Z,100991.28
2023-05-08T11:07:00.783Z,100991.72
2023-05-08T11:09:30.715Z,100981.63
2023-05-08T11:12:06.746Z,100973.41
2023-05-08T11:14:34.613Z,100977.81
2023-05-08T11:17:02.094Z,100973.81
2023-05-08T11:19:29.159Z,100974.00
2023-05-08T11:22:11.366Z,100961.50
2023-05-08T11:24:38.906Z,100967.22
2023-05-08T11:27:05.824Z,100966.09
2023-05-08T11:29:32.941Z,100953.53
2023-05-08T11:31:59.920Z,100959.16
2023-05-08T11:34:42.458Z,100954.50
2023-05-08T11:37:10.277Z,100954.69
2023-05-08T11:39:37.297Z,100961.19
2023-05-08T11:42:33.445Z,100951.03
2023-05-08T11:45:09.900Z,100955.59
2023-05-08T11:47:41.947Z,100941.91
2023-05-08T11:50:09.645Z,100942.16
2023-05-08T11:52:37.494Z,100940.88
2023-05-08T11:55:05.499Z,100937.81
2023-05-08T11:57:35.242Z,100942.53
2023-05-08T12:00:08.940Z,100954.44
2023-05-08T12:02:42.737Z,100955.16
2023-05-08T12:05:10.618Z,100951.66
2023-05-08T12:07:44.755Z,100956.31
2023-05-08T12:10:11.731Z,100961.91
2023-05-08T12:12:39.482Z,100954.31
2023-05-08T12:15:07.390Z,100952.22
2023-05-08T12:17:34.720Z,100955.59
2023-05-08T12:20:11.954Z,100942.63
2023-05-08T12:22:39.731Z,100947.12
2023-05-08T12:25:12.024Z,100962.41
2023-05-08T12:27:39.086Z,100960.13
2023-05-08T12:30:07.855Z,100962.72
2023-05-08T12:32:35.302Z,100949.63
2023-05-08T12:35:02.346Z,100957.97
2023-05-08T12:37:29.154Z,100961.53
2023-05-08T12:39:56.178Z,100956.25
2023-05-08T12:42:22.937Z,100944.97
2023-05-08T12:44:52.776Z,100941.91
2023-05-08T12:47:21.351Z,100944.28
2023-05-08T12:49:49.568Z,100946.28
2023-05-08T12:52:16.710Z,100951.31
2023-05-08T12:54:47.240Z,100950.47
2023-05-08T12:57:14.796Z,100946.53
2023-05-08T12:59:42.023Z,100955.81
2023-05-08T13:02:23.957Z,100951.75
2023-05-08T13:04:57.262Z,100963.09
2023-05-08T13:07:24.096Z,100946.00
2023-05-08T13:10:05.027Z,100953.53
2023-05-08T13:12:31.962Z,100949.84
2023-05-08T13:14:58.886Z,100957.97
2023-05-08T13:17:25.830Z,100958.09
2023-05-08T13:19:52.723Z,100954.19
2023-05-08T13:22:23.263Z,100954.47
2023-05-08T13:24:49.978Z,100952.50
2023-05-08T13:27:16.764Z,100952.78
2023-05-08T13:29:43.516Z,100950.56
2023-05-08T13:32:10.320Z,100946.25
2023-05-08T13:34:41.513Z,100944.00
2023-05-08T13:37:14.189Z,100937.12
2023-05-08T13:39:41.348Z,100934.66
2023-05-08T13:42:08.210Z,100937.09
2023-05-08T13:44:34.894Z,100933.53
2023-05-08T13:47:01.733Z,100931.19
2023-05-08T13:49:28.615Z,100927.56
2023-05-08T13:51:57.109Z,100931.87
2023-05-08T13:54:24.319Z,100926.72
2023-05-08T13:56:51.122Z,100923.47
2023-05-08T13:59:17.970Z,100927.31
2023-05-08T14:01:44.770Z,100919.28
2023-05-08T14:04:11.744Z,100924.09
2023-05-08T14:06:38.697Z,100928.81
2023-05-08T14:09:05.381Z,100930.56
2023-05-08T14:11:32.198Z,100921.03
2023-05-08T14:13:58.930Z,100918.56
2023-05-08T14:16:25.774Z,100911.78
2023-05-08T14:18:52.573Z,100905.66
2023-05-08T14:21:19.307Z,100902.88
2023-05-08T14:23:46.103Z,100897.50
2023-05-08T14:26:12.860Z,100899.34
2023-05-08T14:28:40.260Z,100904.03
2023-05-08T14:31:07.110Z,100906.09
2023-05-08T14:33:33.887Z,100902.94
2023-05-08T14:36:00.609Z,100903.25
2023-05-08T14:38:27.316Z,100901.34
2023-05-08T14:40:54.614Z,100900.47
2023-05-08T14:43:22.051Z,100903.06
2023-05-08T14:45:49.229Z,100898.22
2023-05-08T14:48:15.993Z,100898.16
2023-05-08T14:50:43.003Z,100900.50
2023-05-08T14:53:09.843Z,100892.69
2023-05-08T14:55:37.473Z,100889.56
2023-05-08T14:58:04.419Z,100898.22
2023-05-08T15:00:31.287Z,100891.50
2023-05-08T15:02:58.113Z,100898.41
2023-05-08T15:05:25.693Z,100894.53
2023-05-08T15:07:52.650Z,100898.75
2023-05-08T15:10:19.434Z,100894.06
2023-05-08T15:12:46.204Z,100886.69
2023-05-08T15:15:13.190Z,100889.94
2023-05-08T15:17:41.739Z,100893.19
2023-05-08T15:20:09.505Z,100892.41
2023-05-08T15:22:37.179Z,100894.44
2023-05-08T15:25:04.146Z,100893.28
2023-05-08T15:27:30.861Z,100894.13
2023-05-08T15:29:58.075Z,100894.09
2023-05-08T15:32:24.965Z,100893.34
2023-05-08T15:34:51.748Z,100888.41
2023-05-08T15:37:18.536Z,100891.22
2023-05-08T15:39:45.188Z,100892.66
2023-05-08T15:42:11.994Z,100901.78
2023-05-08T15:44:53.792Z,100899.62
2023-05-08T15:47:23.207Z,100896.34
2023-05-08T15:49:50.833Z,100900.12
2023-05-08T15:52:19.783Z,100887.13
2023-05-08T15:54:47.128Z,100899.13
2023-05-08T15:57:14.046Z,100891.81
2023-05-08T15:59:40.746Z,100892.78
2023-05-08T16:02:08.022Z,100889.00
2023-05-08T16:04:35.913Z,100888.56
2023-05-08T16:07:02.772Z,100886.88
2023-05-08T16:09:29.484Z,100884.34
2023-05-08T16:11:56.186Z,100882.13
2023-05-08T16:14:22.904Z,100891.53
2023-05-08T16:16:49.591Z,100885.63
2023-05-08T16:19:16.350Z,100886.62
2023-05-08T16:21:45.550Z,100889.72
2023-05-08T16:24:12.270Z,100889.72
2023-05-08T16:26:39.132Z,100895.28
2023-05-08T16:29:05.806Z,100893.31
2023-05-08T16:31:32.546Z,100887.91
2023-05-08T16:33:59.355Z,100890.25
2023-05-08T16:36:26.938Z,100896.06
2023-05-08T16:38:53.931Z,100884.09
2023-05-08T16:41:21.465Z,100895.19
2023-05-08T16:43:48.270Z,100896.22
2023-05-08T16:46:15.023Z,100890.97
2023-05-08T16:48:42.510Z,100887.59
2023-05-08T16:51:09.264Z,100896.03
2023-05-08T16:53:36.114Z,100896.34
2023-05-08T16:56:02.871Z,100901.53
2023-05-08T16:58:29.586Z,100900.41
2023-05-08T17:00:56.371Z,100908.22
2023-05-08T17:03:23.183Z,100916.44
2023-05-08T17:05:49.969Z,100923.28
2023-05-08T17:08:16.740Z,100913.59
2023-05-08T17:10:43.477Z,100914.16
2023-05-08T17:13:10.309Z,100914.53
2023-05-08T17:15:37.027Z,100911.37
2023-05-08T17:18:03.875Z,100912.38
2023-05-08T17:20:30.831Z,100913.47
2023-05-08T17:22:57.509Z,100921.09
2023-05-08T17:25:24.211Z,100910.78
2023-05-08T17:27:51.458Z,100917.47
2023-05-08T17:30:18.237Z,100915.69
2023-05-08T17:32:46.514Z,100911.25
2023-05-08T17:35:13.440Z,100918.25
2023-05-08T17:37:40.131Z,100925.06
2023-05-08T17:40:07.309Z,100931.81
2023-05-08T17:42:34.004Z,100926.59
2023-05-08T17:45:00.769Z,100942.78
2023-05-08T17:47:27.535Z,100938.56
2023-05-08T17:49:54.201Z,100934.72
2023-05-08T17:52:20.935Z,100951.94
2023-05-08T17:54:47.916Z,100950.06
2023-05-08T17:57:14.599Z,100949.00
2023-05-08T17:59:41.406Z,100952.50
2023-05-08T18:02:08.218Z,100947.66
2023-05-08T18:04:35.026Z,100958.66
2023-05-08T18:07:01.966Z,100962.34
2023-05-08T18:09:28.677Z,100964.00
2023-05-08T18:12:01.280Z,100961.56
2023-05-08T18:14:31.907Z,100967.84
2023-05-08T18:16:58.847Z,100961.75
2023-05-08T18:19:25.816Z,100963.47
2023-05-08T18:21:52.534Z,100974.38
2023-05-08T18:24:19.263Z,100970.25
2023-05-08T18:26:47.791Z,100977.31
2023-05-08T18:29:15.018Z,100975.38
2023-05-08T18:31:41.739Z,100985.28
2023-05-08T18:34:08.500Z,100992.66
2023-05-08T18:36:35.204Z,100992.66
2023-05-08T18:39:01.926Z,100994.09
2023-05-08T18:41:28.633Z,101006.72
2023-05-08T18:43:55.401Z,101006.97
2023-05-08T18:46:22.153Z,101014.81
2023-05-08T18:48:48.840Z,101012.16
2023-05-08T18:51:15.517Z,101021.22
2023-05-08T18:53:42.234Z,101030.81
2023-05-08T18:56:09.000Z,101025.47
2023-05-08T18:58:35.761Z,101023.66
2023-05-08T19:01:02.559Z,101025.38
2023-05-08T19:03:29.364Z,101025.66
2023-05-08T19:05:56.330Z,101036.63
2023-05-08T19:08:23.031Z,101036.00
2023-05-08T19:10:49.838Z,101045.03
2023-05-08T19:13:16.659Z,101048.97
2023-05-08T19:15:43.377Z,101053.31
2023-05-08T19:18:10.397Z,101048.47
2023-05-08T19:20:37.200Z,101051.63
2023-05-08T19:23:03.978Z,101064.19
2023-05-08T19:25:30.763Z,101057.25
2023-05-08T19:27:58.863Z,101070.84
2023-05-08T19:30:25.657Z,101064.81
2023-05-08T19:32:52.320Z,101062.09
2023-05-08T19:35:19.093Z,101059.34
2023-05-08T19:37:45.832Z,101056.00
2023-05-08T19:40:13.244Z,101062.19
2023-05-08T19:42:40.177Z,101056.59
2023-05-08T19:45:07.136Z,101057.63
2023-05-08T19:47:33.875Z,101057.81
2023-05-08T19:50:00.597Z,101053.06
2023-05-08T19:52:27.339Z,101056.53
2023-05-08T19:54:54.068Z,101062.19
2023-05-08T19:57:20.784Z,101070.78
2023-05-08T19:59:47.491Z,101073.72
2023-05-08T20:02:14.271Z,101078.09
2023-05-08T20:07:11.225Z,101078.47
2023-05-08T20:09:38.648Z,101079.75
2023-05-08T20:12:05.466Z,101078.94
2023-05-08T20:14:32.182Z,101072.72
2023-05-08T20:16:59.003Z,101082.66
2023-05-08T20:19:28.674Z,101084.47
2023-05-08T20:21:55.399Z,101077.66
2023-05-08T20:24:22.119Z,101082.81
2023-05-08T20:26:48.914Z,101089.88
2023-05-08T20:29:15.655Z,101091.97
2023-05-08T20:31:42.347Z,101088.41
2023-05-08T20:34:09.050Z,101090.97
2023-05-08T20:36:35.893Z,101099.84
2023-05-08T20:39:02.586Z,101094.53
2023-05-08T20:41:29.322Z,101104.31
2023-05-08T20:43:55.997Z,101097.38
2023-05-08T20:46:22.811Z,101103.59
2023-05-08T20:48:51.304Z,101106.41
2023-05-08T20:51:18.002Z,101106.53
2023-05-08T20:53:44.786Z,101116.41
2023-05-08T20:56:11.838Z,101122.13
2023-05-08T20:58:38.568Z,101115.13
2023-05-08T21:01:05.396Z,101120.97
2023-05-08T21:03:32.073Z,101124.38
2023-05-08T21:05:58.764Z,101127.75
2023-05-08T21:08:26.695Z,101138.59
2023-05-08T21:10:53.468Z,101145.09
2023-05-08T21:13:20.460Z,101141.25
2023-05-08T21:15:52.988Z,101142.31
2023-05-08T21:18:19.641Z,101138.63
2023-05-08T21:20:50.358Z,101137.81
2023-05-08T21:23:17.743Z,101146.22
2023-05-08T21:25:50.900Z,101144.47
2023-05-08T21:28:17.701Z,101148.94
2023-05-08T21:30:44.681Z,101153.22
2023-05-08T21:33:13.898Z,101177.75
2023-05-08T21:35:41.749Z,101161.16
2023-05-08T21:38:08.574Z,101163.75
2023-05-08T21:40:35.558Z,101165.50
2023-05-08T21:43:02.249Z,101161.12
2023-05-08T21:45:32.639Z,101165.44
2023-05-08T21:48:00.148Z,101168.13
2023-05-08T21:50:28.675Z,101177.91
2023-05-08T21:52:56.703Z,101175.03
2023-05-08T21:55:23.764Z,101181.19
2023-05-08T21:57:50.658Z,101171.69
2023-05-08T22:00:17.562Z,101175.31
2023-05-08T22:02:44.349Z,101173.44
2023-05-08T22:05:11.777Z,101172.63
2023-05-08T22:07:38.657Z,101171.69
2023-05-08T22:10:05.715Z,101173.66
2023-05-08T22:12:32.412Z,101176.28
2023-05-08T22:14:59.097Z,101174.50
2023-05-08T22:17:25.832Z,101170.16
2023-05-08T22:19:52.677Z,101170.16
2023-05-08T22:22:19.453Z,101164.91
2023-05-08T22:24:46.160Z,101162.28
2023-05-08T22:27:12.798Z,101159.53
2023-05-08T22:29:39.510Z,101158.72
2023-05-08T22:32:08.464Z,101170.16
2023-05-08T22:34:35.349Z,101156.13
2023-05-08T22:37:02.395Z,101163.09
2023-05-08T22:39:29.121Z,101176.31
2023-05-08T22:41:56.300Z,101153.44
2023-05-08T22:44:23.047Z,101153.47
2023-05-08T22:46:49.928Z,101166.66
2023-05-08T22:49:17.243Z,101170.16
2023-05-08T22:51:43.986Z,101167.50
2023-05-08T22:54:10.634Z,101164.03
2023-05-08T22:56:38.385Z,101171.84
2023-05-08T22:59:05.633Z,101162.25
2023-05-08T23:01:32.476Z,101166.66
2023-05-08T23:03:59.239Z,101155.22
2023-05-08T23:06:26.284Z,101159.63
2023-05-08T23:08:53.029Z,101166.56
2023-05-08T23:11:19.695Z,101151.72
2023-05-08T23:13:46.492Z,101162.28
2023-05-08T23:16:13.230Z,101168.41
2023-05-08T23:18:39.970Z,101165.75
2023-05-08T23:21:07.641Z,101164.88
2023-05-08T23:23:34.843Z,101171.03
2023-05-08T23:26:05.161Z,101164.88
2023-05-08T23:28:35.276Z,101164.88
2023-05-08T23:31:02.567Z,101161.34
2023-05-08T23:33:29.397Z,101164.91
2023-05-08T23:35:56.838Z,101157.84
2023-05-08T23:38:24.001Z,101156.97
2023-05-08T23:40:51.041Z,101160.50
2023-05-08T23:43:17.869Z,101158.69
2023-05-08T23:45:44.551Z,101151.69
2023-05-08T23:48:11.290Z,101160.38
2023-05-08T23:53:04.768Z,101157.00
2023-05-08T23:55:31.856Z,101149.97
2023-05-08T23:57:58.655Z,101150.81
